Jessup, Pennsylvania
Current Conditions -  °F | °C
As of 11:54 PM on Saturday 25 Oct 2014 (Local Time) from KAVP Reporting Station
Clear Clear  
Wind Chill: 59°   Ceiling: Unl
Heat Index: 59°   Visibility: 10mi
Dew Point: 40°   Wind: 10mph
Humidity: 49%   Direction: 310°NW
Pressure: 29.61"   Gusts: NA
Location:  41.47°N, 75.56°W
Report Text: KAVP 260354Z 31009KT 10SM CLR 15/04 A2961 RMK AO2 SLP023 T01500044
Loading
Personal Weather Stations






























Interactive Weather Map
Tropical Storm Tracking
New forecast layout! Learn more

10-Day Weather Forecast

Advertisements
Track Severe Weather on mobile